Main page
Satellite images 10-day forecastsClimateMarine weather Cyclones Lightning AirportsFAQ Newsletter About
Weather : Europe Africa North America South America Asia Australia-Oceania Others
Languages Contact

Liège, Belgium

Liège Airport

latitude: 50-39N, longitude: 005-27E, elevation: 186 m


METAR: EBLG 031520Z 03008KT 350V070 9999 FEW050TCU 31/19 Q1022 NOSIG
TAF: EBLG 031100Z 0312/0418 04007KT CAVOK TEMPO 0412/0418 SHRA PROB30 TEMPO 0413/0418 TSRA

Time: 17:34 (15:34 UTC)

Current weather observation

The report was made 14 minutes ago, at 15:20 UTC
Wind 8 kt from the North/Northeast, varying between North and East/Northeast
Temperature 31°C
Humidity 49%
Pressure 1022 hPa
Visibility 10 km or more
Few clouds at a height of 5000 ft, Towering cumulus.

Change units

Forecast

The report was made 4 hours and 34 minutes ago, at 11:00 UTC
Forecast valid from 03 at 12 UTC to 04 at 18 UTC
Wind 7 kt from the Northeast
Visibility 10 km or more
no clouds below 1500 m and no cumulonimbus
Temporary
from 04 at 12 UTC to 04 at 18 UTC
rain showers
Probability 30% :
Temporary
from 04 at 13 UTC to 04 at 18 UTC
thunderstorm, rain
The information on this site is subject to a disclaimer
Weather : Europe Africa North America South America Asia Australia-Oceania Others
Satellite images 10-day forecastsClimateMarine weather Cyclones Lightning AirportsFAQ Languages Contact Newsletter About